Time;durP1;ratioP1;P1;durP2;ratioP2;P2;SDS_P1;SDS_P2;PMS_P1;PMS_P2;Temp;Humidity;BMP_temperature;BMP_pressure;BME280_temperature;BME280_humidity;BME280_pressure;Samples;Min_cycle;Max_cycle;Signal;HPM_P1;HPM_P2
2023/10/21 00:00:21;;;;;;;1.63;0.60;;;14.70;99.90;;;;;;5070471;28;20191;-72
2023/10/21 00:02:47;;;;;;;2.50;0.57;;;14.70;99.90;;;;;;5070439;28;20489;-71
2023/10/21 00:05:12;;;;;;;0.80;0.50;;;14.80;99.90;;;;;;5069918;28;20436;-72
2023/10/21 00:07:38;;;;;;;2.93;0.50;;;14.70;99.90;;;;;;5067124;28;20230;-73
2023/10/21 00:10:06;;;;;;;2.10;0.50;;;14.70;99.90;;;;;;5069800;28;20237;-74
2023/10/21 00:12:33;;;;;;;2.20;0.70;;;14.70;99.90;;;;;;5069868;28;20188;-73
2023/10/21 00:14:59;;;;;;;2.33;0.60;;;14.70;99.90;;;;;;5070020;28;20893;-72
2023/10/21 00:17:30;;;;;;;5.23;0.60;;;14.60;99.90;;;;;;5068520;28;20441;-73
2023/10/21 00:19:56;;;;;;;0.80;0.50;;;14.60;99.90;;;;;;5069931;28;20541;-74
2023/10/21 00:22:22;;;;;;;1.20;0.57;;;14.60;99.90;;;;;;5069728;28;20483;-73
2023/10/21 00:24:47;;;;;;;1.40;0.70;;;14.60;99.90;;;;;;5070199;28;20187;-73
2023/10/21 00:27:13;;;;;;;2.70;0.60;;;14.50;99.90;;;;;;5069949;28;20199;-73
2023/10/21 00:29:39;;;;;;;1.00;0.50;;;14.50;99.90;;;;;;5068731;28;20323;-72
2023/10/21 00:32:04;;;;;;;0.90;0.70;;;14.50;99.90;;;;;;5068761;28;20197;-72
2023/10/21 00:34:31;;;;;;;3.43;0.63;;;14.50;99.90;;;;;;5070297;28;20222;-72
2023/10/21 00:36:57;;;;;;;0.80;0.50;;;14.40;99.90;;;;;;5070649;28;20465;-72
2023/10/21 00:39:22;;;;;;;2.23;0.70;;;14.40;99.90;;;;;;5070059;28;20426;-73
2023/10/21 00:41:48;;;;;;;1.47;0.97;;;14.40;99.90;;;;;;5070034;28;20221;-73
2023/10/21 00:44:14;;;;;;;0.97;0.60;;;14.30;99.90;;;;;;5068903;28;20198;-72
2023/10/21 00:46:40;;;;;;;1.53;0.70;;;14.30;99.90;;;;;;5069976;28;20713;-73
2023/10/21 00:49:06;;;;;;;0.87;0.57;;;14.30;99.90;;;;;;5069984;28;20316;-72
2023/10/21 00:51:32;;;;;;;0.83;0.50;;;14.30;99.90;;;;;;5070004;28;20521;-72
2023/10/21 00:54:00;;;;;;;0.83;0.60;;;14.20;99.90;;;;;;5069770;28;20182;-72
2023/10/21 00:56:25;;;;;;;1.03;0.53;;;14.30;99.90;;;;;;5069348;28;20527;-72
2023/10/21 00:58:51;;;;;;;1.47;0.67;;;14.20;99.90;;;;;;5068118;28;20797;-73
2023/10/21 01:01:17;;;;;;;0.83;0.60;;;14.20;99.90;;;;;;5068997;28;20195;-72
2023/10/21 01:03:43;;;;;;;0.90;0.60;;;14.20;99.90;;;;;;5069090;28;20218;-73
2023/10/21 01:06:09;;;;;;;0.90;0.50;;;14.20;99.90;;;;;;5067880;28;20475;-72
2023/10/21 01:08:41;;;;;;;1.40;0.77;;;14.20;99.90;;;;;;5069054;28;20429;-73
2023/10/21 01:11:08;;;;;;;0.80;0.60;;;14.20;99.90;;;;;;5069123;28;20673;-72
2023/10/21 01:13:34;;;;;;;0.80;0.50;;;14.10;99.90;;;;;;5069081;28;20429;-73
2023/10/21 01:16:00;;;;;;;0.90;0.57;;;14.20;99.90;;;;;;5067631;28;20426;-72
2023/10/21 01:18:25;;;;;;;1.00;0.70;;;14.20;99.90;;;;;;5068506;28;20325;-72
2023/10/21 01:20:54;;;;;;;1.77;0.60;;;14.20;99.90;;;;;;5068825;28;20210;-72
2023/10/21 01:23:19;;;;;;;1.03;0.60;;;14.20;99.90;;;;;;5068867;28;20227;-73
2023/10/21 01:25:45;;;;;;;1.43;0.60;;;14.20;99.90;;;;;;5067536;28;20469;-73
2023/10/21 01:28:12;;;;;;;0.80;0.50;;;14.10;99.90;;;;;;5068829;28;20207;-72
2023/10/21 01:30:37;;;;;;;1.33;0.50;;;14.00;99.90;;;;;;5067564;28;20232;-73
2023/10/21 01:33:03;;;;;;;0.80;0.60;;;14.10;99.90;;;;;;5068887;28;20476;-73
2023/10/21 01:35:29;;;;;;;0.90;0.60;;;14.10;99.90;;;;;;5067692;28;20195;-74
2023/10/21 01:37:54;;;;;;;1.10;0.70;;;14.00;99.90;;;;;;5067697;28;20464;-73
2023/10/21 01:40:20;;;;;;;0.90;0.53;;;14.10;99.90;;;;;;5067979;28;20212;-72
2023/10/21 01:42:46;;;;;;;0.90;0.50;;;14.00;99.90;;;;;;5069162;28;20204;-72
2023/10/21 01:45:12;;;;;;;1.57;0.60;;;14.00;99.90;;;;;;5069380;28;20233;-72
2023/10/21 01:47:37;;;;;;;1.40;0.70;;;14.00;99.90;;;;;;5069211;28;20437;-73
2023/10/21 01:50:08;;;;;;;1.10;0.67;;;14.10;99.90;;;;;;5067940;28;20197;-72
2023/10/21 01:52:37;;;;;;;1.10;0.70;;;14.00;99.90;;;;;;5068069;28;20222;-74
2023/10/21 01:55:08;;;;;;;0.80;0.60;;;14.00;99.90;;;;;;5067915;28;20426;-73
2023/10/21 01:57:34;;;;;;;1.40;0.90;;;14.00;99.90;;;;;;5068791;28;20953;-73
2023/10/21 02:00:01;;;;;;;0.90;0.50;;;14.00;99.90;;;;;;5068724;28;20473;-73
2023/10/21 02:02:27;;;;;;;2.80;0.50;;;14.00;99.90;;;;;;5068681;28;20464;-73
2023/10/21 02:04:52;;;;;;;0.80;0.50;;;14.00;99.90;;;;;;5069084;28;20445;-74
2023/10/21 02:07:19;;;;;;;0.93;0.50;;;13.90;99.90;;;;;;5068941;28;20441;-74
2023/10/21 02:09:45;;;;;;;0.90;0.50;;;13.90;99.90;;;;;;5069046;28;20198;-73
2023/10/21 02:12:10;;;;;;;0.80;0.50;;;13.90;99.90;;;;;;5069060;28;20919;-73
2023/10/21 02:14:36;;;;;;;0.90;0.40;;;13.90;99.90;;;;;;5067786;28;20563;-74
2023/10/21 02:17:02;;;;;;;0.83;0.53;;;14.00;99.90;;;;;;5068766;28;20211;-73
2023/10/21 02:19:27;;;;;;;0.70;0.30;;;14.30;99.90;;;;;;5068749;28;20202;-73
2023/10/21 02:21:53;;;;;;;0.70;0.40;;;14.30;99.90;;;;;;5068257;28;20219;-73
2023/10/21 02:24:18;;;;;;;0.80;0.40;;;14.40;99.90;;;;;;5066957;28;20179;-72
2023/10/21 02:26:44;;;;;;;0.90;0.50;;;14.40;99.90;;;;;;5068215;28;20260;-72
2023/10/21 02:29:09;;;;;;;0.80;0.40;;;14.40;99.90;;;;;;5068277;28;20224;-71
2023/10/21 02:31:35;;;;;;;0.70;0.30;;;14.70;99.90;;;;;;5071376;28;20225;-72
2023/10/21 02:34:01;;;;;;;0.80;0.40;;;14.60;99.90;;;;;;5072197;28;20190;-72
2023/10/21 02:36:26;;;;;;;0.70;0.30;;;14.60;99.90;;;;;;5072104;28;20212;-72
2023/10/21 02:38:52;;;;;;;0.80;0.40;;;14.60;99.90;;;;;;5070909;28;20179;-72
2023/10/21 02:41:18;;;;;;;1.53;0.40;;;14.60;99.90;;;;;;5071058;28;20814;-73
2023/10/21 02:43:44;;;;;;;0.80;0.37;;;14.50;99.90;;;;;;5071915;28;20460;-73
2023/10/21 02:46:11;;;;;;;0.70;0.40;;;14.60;99.90;;;;;;5070498;28;20688;-73
2023/10/21 02:48:37;;;;;;;0.93;0.40;;;14.60;99.90;;;;;;5070934;28;20180;-72
2023/10/21 02:51:13;;;;;;;0.70;0.40;;;14.60;99.90;;;;;;5070484;28;20426;-73
2023/10/21 02:53:40;;;;;;;0.80;0.40;;;14.60;99.90;;;;;;5070613;28;20470;-72
2023/10/21 02:56:09;;;;;;;1.03;0.43;;;14.60;99.90;;;;;;5071780;28;20468;-72
2023/10/21 02:58:36;;;;;;;1.57;0.40;;;14.60;99.90;;;;;;5071689;28;20424;-73
2023/10/21 03:01:11;;;;;;;2.23;0.33;;;14.60;99.90;;;;;;5071517;28;20439;-72
2023/10/21 03:03:37;;;;;;;1.53;0.50;;;14.60;99.90;;;;;;5071690;28;20513;-72
2023/10/21 03:06:03;;;;;;;0.80;0.37;;;14.70;99.90;;;;;;5070065;28;21252;-72
2023/10/21 03:08:28;;;;;;;0.70;0.40;;;14.70;99.90;;;;;;5071475;28;20430;-72
2023/10/21 03:10:55;;;;;;;0.90;0.40;;;14.60;99.90;;;;;;5071602;28;20219;-73
2023/10/21 03:13:20;;;;;;;0.77;0.40;;;14.70;99.90;;;;;;5071413;28;20184;-72
2023/10/21 03:15:46;;;;;;;2.20;0.30;;;14.70;99.90;;;;;;5071255;28;20767;-72
2023/10/21 03:18:12;;;;;;;1.43;0.40;;;14.60;99.90;;;;;;5071050;28;20234;-73
2023/10/21 03:20:37;;;;;;;0.90;0.40;;;14.70;99.90;;;;;;5069608;28;20215;-72
2023/10/21 03:23:03;;;;;;;0.70;0.40;;;14.70;99.90;;;;;;5071108;28;20239;-72
2023/10/21 03:25:30;;;;;;;0.70;0.40;;;14.60;99.90;;;;;;5070857;28;20179;-72
2023/10/21 03:27:56;;;;;;;1.20;0.50;;;14.60;99.90;;;;;;5070766;28;20442;-72
2023/10/21 03:30:21;;;;;;;0.70;0.30;;;14.60;99.90;;;;;;5070820;28;20419;-72
2023/10/21 03:32:47;;;;;;;0.80;0.40;;;14.60;99.90;;;;;;5069475;28;20456;-72
2023/10/21 03:35:13;;;;;;;0.70;0.40;;;14.60;99.90;;;;;;5070752;28;20684;-72
2023/10/21 03:37:38;;;;;;;1.00;0.40;;;14.60;99.90;;;;;;5069471;28;20623;-72
2023/10/21 03:40:05;;;;;;;0.80;0.40;;;14.60;99.90;;;;;;5069234;28;20836;-72
2023/10/21 03:42:31;;;;;;;1.83;0.50;;;14.60;99.90;;;;;;5070244;28;20715;-72
2023/10/21 03:44:57;;;;;;;1.07;0.50;;;14.70;99.90;;;;;;5070427;28;20421;-72
2023/10/21 03:47:22;;;;;;;1.03;0.50;;;14.60;99.90;;;;;;5070434;28;20215;-72
2023/10/21 03:49:48;;;;;;;0.70;0.40;;;14.70;99.90;;;;;;5069099;28;20697;-72
2023/10/21 03:52:14;;;;;;;1.80;0.40;;;14.70;99.90;;;;;;5068844;28;20194;-72
2023/10/21 03:54:39;;;;;;;0.90;0.50;;;14.60;99.90;;;;;;5069022;28;20189;-73
2023/10/21 03:57:05;;;;;;;0.70;0.37;;;14.60;99.90;;;;;;5068676;28;20226;-72
2023/10/21 03:59:30;;;;;;;2.00;0.50;;;14.60;99.90;;;;;;5070293;28;20608;-73
2023/10/21 04:01:57;;;;;;;0.97;0.37;;;14.60;99.90;;;;;;5069967;28;20318;-72
2023/10/21 04:04:23;;;;;;;0.70;0.40;;;14.50;99.90;;;;;;5068698;28;20180;-72
2023/10/21 04:06:48;;;;;;;1.50;0.40;;;14.60;99.90;;;;;;5051832;28;20484;-73
2023/10/21 04:09:14;;;;;;;1.20;0.50;;;14.60;99.90;;;;;;5068662;28;20740;-72
2023/10/21 04:11:41;;;;;;;0.90;0.40;;;14.60;99.90;;;;;;5069935;28;20416;-72
2023/10/21 04:14:07;;;;;;;2.23;0.40;;;14.60;99.90;;;;;;5068572;28;20183;-72
2023/10/21 04:16:32;;;;;;;0.80;0.43;;;14.60;99.90;;;;;;5069966;28;20436;-73
2023/10/21 04:18:58;;;;;;;3.57;0.87;;;14.60;99.90;;;;;;5069858;28;20183;-72
2023/10/21 04:21:25;;;;;;;1.27;0.40;;;14.60;99.90;;;;;;5070021;28;20179;-72
2023/10/21 04:23:51;;;;;;;0.90;0.40;;;14.60;99.90;;;;;;5069864;28;20203;-72
2023/10/21 04:26:16;;;;;;;1.27;0.50;;;14.60;99.90;;;;;;5069636;28;20457;-73
2023/10/21 04:28:42;;;;;;;0.70;0.40;;;14.60;99.90;;;;;;5068526;28;20310;-72
2023/10/21 04:31:07;;;;;;;3.00;0.47;;;14.60;99.90;;;;;;5051595;28;20179;-72
2023/10/21 04:33:33;;;;;;;2.00;0.43;;;14.60;99.90;;;;;;5069494;28;20560;-72
2023/10/21 04:35:58;;;;;;;2.00;0.40;;;14.60;99.90;;;;;;5068185;28;20191;-72
2023/10/21 04:38:24;;;;;;;0.70;0.40;;;14.70;99.90;;;;;;5069455;28;20305;-72
2023/10/21 04:40:50;;;;;;;0.80;0.40;;;14.70;99.90;;;;;;5069465;28;20186;-72
2023/10/21 04:43:16;;;;;;;0.80;0.40;;;14.60;99.90;;;;;;5069194;28;20296;-72
2023/10/21 04:45:41;;;;;;;0.90;0.40;;;14.60;99.90;;;;;;5069372;28;20183;-72
2023/10/21 04:48:07;;;;;;;0.90;0.60;;;14.70;99.90;;;;;;5068154;28;20442;-72
2023/10/21 04:50:32;;;;;;;0.90;0.60;;;14.70;99.90;;;;;;5069483;28;20200;-72
2023/10/21 04:52:59;;;;;;;2.20;0.40;;;14.80;99.90;;;;;;5068651;28;20188;-72
2023/10/21 04:55:25;;;;;;;0.80;0.40;;;14.80;99.90;;;;;;5069276;28;20233;-72
2023/10/21 04:57:51;;;;;;;3.10;0.43;;;14.70;99.90;;;;;;5067496;28;20429;-72
2023/10/21 05:00:16;;;;;;;1.43;0.40;;;14.70;99.90;;;;;;5067625;28;20577;-73
2023/10/21 05:02:42;;;;;;;1.27;0.40;;;14.70;99.90;;;;;;5068912;28;20223;-72
2023/10/21 05:05:09;;;;;;;0.80;0.30;;;14.70;99.90;;;;;;5069004;28;20175;-72
2023/10/21 05:07:34;;;;;;;0.80;0.40;;;14.70;99.90;;;;;;5067570;28;20190;-71
2023/10/21 05:10:00;;;;;;;0.80;0.40;;;14.70;99.90;;;;;;5068994;28;20510;-72
2023/10/21 05:12:26;;;;;;;0.70;0.30;;;14.70;99.90;;;;;;5067626;28;20683;-72
2023/10/21 05:14:52;;;;;;;1.10;0.47;;;14.70;99.90;;;;;;5068849;28;20504;-72
2023/10/21 05:17:17;;;;;;;0.70;0.40;;;14.70;99.90;;;;;;5050721;28;20206;-72
2023/10/21 05:19:43;;;;;;;1.00;0.30;;;14.80;99.90;;;;;;5067389;28;20190;-72
2023/10/21 05:22:08;;;;;;;2.00;0.40;;;14.70;99.90;;;;;;5067453;28;20744;-72
2023/10/21 05:24:34;;;;;;;0.70;0.33;;;14.70;99.90;;;;;;5068793;28;20195;-72
2023/10/21 05:27:00;;;;;;;0.70;0.30;;;14.70;99.90;;;;;;5068603;28;20208;-71
2023/10/21 05:29:26;;;;;;;1.00;0.40;;;14.60;99.90;;;;;;5050423;28;20706;-72
2023/10/21 05:31:52;;;;;;;0.93;0.50;;;14.70;99.90;;;;;;5068661;28;20176;-72
2023/10/21 05:34:18;;;;;;;0.70;0.30;;;14.70;99.90;;;;;;5068781;28;20463;-72
2023/10/21 05:36:44;;;;;;;2.60;0.43;;;14.70;99.90;;;;;;5067194;28;20199;-72
2023/10/21 05:39:13;;;;;;;3.17;0.50;;;14.80;99.90;;;;;;5067403;28;20180;-72
2023/10/21 05:41:40;;;;;;;1.00;0.30;;;14.80;99.90;;;;;;5068398;28;20463;-73
2023/10/21 05:44:06;;;;;;;0.70;0.40;;;14.70;99.90;;;;;;5067415;28;20423;-73
2023/10/21 05:46:33;;;;;;;0.77;0.40;;;14.80;99.90;;;;;;5068416;28;20891;-73
2023/10/21 05:48:58;;;;;;;0.80;0.30;;;14.80;99.90;;;;;;5067399;28;20430;-72
2023/10/21 05:51:24;;;;;;;1.77;0.40;;;14.80;99.90;;;;;;5067171;28;20911;-72
2023/10/21 05:53:51;;;;;;;0.80;0.30;;;14.80;99.90;;;;;;5069100;28;20188;-72
2023/10/21 05:56:17;;;;;;;2.03;0.40;;;14.70;99.90;;;;;;5068615;28;20201;-73
2023/10/21 05:58:43;;;;;;;0.70;0.40;;;14.80;99.90;;;;;;5068525;28;21014;-72
2023/10/21 06:01:09;;;;;;;0.70;0.37;;;14.80;99.90;;;;;;5050341;28;20754;-73
2023/10/21 06:03:39;;;;;;;0.70;0.40;;;14.80;99.90;;;;;;5068609;28;20577;-73
2023/10/21 06:06:05;;;;;;;0.90;0.40;;;14.70;99.90;;;;;;5072476;28;20505;-72
2023/10/21 06:08:31;;;;;;;0.70;0.30;;;14.70;99.90;;;;;;5072800;28;21007;-73
2023/10/21 06:10:57;;;;;;;2.30;0.50;;;14.70;99.90;;;;;;5072944;28;20437;-73
2023/10/21 06:13:24;;;;;;;0.90;0.40;;;14.70;99.90;;;;;;5073395;28;20236;-72
2023/10/21 06:15:51;;;;;;;1.17;0.40;;;14.80;99.90;;;;;;5072043;28;20862;-72
2023/10/21 06:18:17;;;;;;;0.70;0.40;;;14.70;99.90;;;;;;5073328;28;20424;-72
2023/10/21 06:20:49;;;;;;;3.00;0.40;;;14.70;99.90;;;;;;5071838;28;20503;-72
2023/10/21 06:23:16;;;;;;;0.73;0.40;;;14.70;99.90;;;;;;5073014;28;20219;-72
2023/10/21 06:25:41;;;;;;;5.30;0.50;;;14.60;99.90;;;;;;5073001;28;21284;-72
2023/10/21 06:28:07;;;;;;;0.80;0.40;;;14.60;99.90;;;;;;5071665;28;20441;-72
2023/10/21 06:30:36;;;;;;;0.70;0.40;;;14.60;99.90;;;;;;5071550;28;20224;-72
2023/10/21 06:33:03;;;;;;;0.80;0.30;;;14.70;99.90;;;;;;5072475;28;20179;-71
2023/10/21 06:35:28;;;;;;;4.73;0.40;;;14.60;99.90;;;;;;5072273;28;20414;-72
2023/10/21 06:37:54;;;;;;;1.67;0.40;;;14.60;99.90;;;;;;5072206;28;20824;-72
2023/10/21 06:40:20;;;;;;;0.80;0.30;;;14.70;99.90;;;;;;5072179;28;20607;-72
2023/10/21 06:42:46;;;;;;;0.90;0.40;;;14.80;99.90;;;;;;5072061;28;20474;-71
2023/10/21 06:45:11;;;;;;;0.70;0.30;;;14.70;99.90;;;;;;5072251;28;20181;-72
2023/10/21 06:47:37;;;;;;;1.00;0.40;;;14.80;99.90;;;;;;5070454;28;20213;-71
2023/10/21 06:50:04;;;;;;;1.80;0.40;;;14.80;99.90;;;;;;5072067;28;20182;-72
2023/10/21 06:52:30;;;;;;;1.63;0.40;;;14.80;99.90;;;;;;5072353;28;20417;-71
2023/10/21 06:54:56;;;;;;;1.63;0.40;;;14.70;99.90;;;;;;5071791;28;20448;-71
2023/10/21 06:57:21;;;;;;;2.70;0.97;;;14.70;99.90;;;;;;5071569;28;20473;-71
2023/10/21 06:59:47;;;;;;;0.70;0.40;;;14.70;99.90;;;;;;5070349;28;20217;-72
2023/10/21 07:02:13;;;;;;;1.83;0.40;;;14.70;99.90;;;;;;5071265;28;20211;-72
2023/10/21 07:04:38;;;;;;;0.90;0.40;;;14.70;99.90;;;;;;5071431;28;20784;-72
2023/10/21 07:07:04;;;;;;;0.70;0.30;;;14.70;99.90;;;;;;5071309;28;20685;-72
2023/10/21 07:09:30;;;;;;;0.70;0.30;;;14.70;99.90;;;;;;5070083;28;20264;-71
2023/10/21 07:11:56;;;;;;;0.87;0.50;;;14.70;99.90;;;;;;5071357;28;20183;-73
2023/10/21 07:14:21;;;;;;;1.00;0.40;;;14.70;99.90;;;;;;5069698;28;20191;-72
2023/10/21 07:16:47;;;;;;;0.80;0.47;;;14.70;99.90;;;;;;5070415;28;20433;-72
2023/10/21 07:19:13;;;;;;;0.80;0.40;;;14.70;99.90;;;;;;5069809;28;20556;-72
2023/10/21 07:21:38;;;;;;;1.30;0.50;;;14.60;99.90;;;;;;5070993;28;20299;-72
2023/10/21 07:24:04;;;;;;;1.70;0.70;;;14.60;99.90;;;;;;5071193;28;20183;-72
2023/10/21 07:26:30;;;;;;;1.47;0.40;;;14.60;99.90;;;;;;5070004;28;20207;-72
2023/10/21 07:28:56;;;;;;;0.70;0.33;;;14.60;99.90;;;;;;5069675;28;20417;-72
2023/10/21 07:31:21;;;;;;;1.47;0.40;;;14.60;99.90;;;;;;5071169;28;20183;-72
2023/10/21 07:33:49;;;;;;;0.80;0.43;;;14.70;99.90;;;;;;5071050;28;20268;-72
2023/10/21 07:36:15;;;;;;;1.33;0.37;;;14.70;99.90;;;;;;5071074;28;20222;-72
2023/10/21 07:38:40;;;;;;;0.80;0.40;;;14.80;99.90;;;;;;5071349;28;20422;-72
2023/10/21 07:41:13;;;;;;;4.00;1.40;;;14.80;99.90;;;;;;5070162;28;20183;-72
2023/10/21 07:43:39;;;;;;;0.70;0.40;;;14.90;99.90;;;;;;5071386;28;20252;-72
2023/10/21 07:46:04;;;;;;;0.90;0.40;;;15.00;99.90;;;;;;5071448;28;20425;-72
2023/10/21 07:48:31;;;;;;;1.80;0.40;;;15.10;99.90;;;;;;5053272;28;20177;-73
2023/10/21 07:50:56;;;;;;;0.70;0.30;;;15.30;99.90;;;;;;5069966;28;20176;-71
2023/10/21 07:53:22;;;;;;;1.90;0.43;;;15.30;99.90;;;;;;5071442;28;20518;-71
2023/10/21 07:55:51;;;;;;;1.20;0.50;;;15.40;99.90;;;;;;5069850;28;20184;-71
2023/10/21 07:58:16;;;;;;;2.23;1.00;;;15.50;99.90;;;;;;5071170;28;20180;-71
2023/10/21 08:00:42;;;;;;;0.93;0.50;;;15.70;99.90;;;;;;5071070;28;20990;-71
2023/10/21 08:03:08;;;;;;;0.90;0.40;;;15.80;99.90;;;;;;5071015;28;20835;-71
2023/10/21 08:05:34;;;;;;;1.30;0.50;;;15.80;99.90;;;;;;5070676;28;20414;-71
2023/10/21 08:07:59;;;;;;;1.07;0.40;;;15.90;99.90;;;;;;5070390;28;20196;-71
2023/10/21 08:10:25;;;;;;;3.73;0.60;;;16.00;99.90;;;;;;5069123;28;20190;-73
2023/10/21 08:12:51;;;;;;;1.47;0.60;;;16.10;99.90;;;;;;5068792;28;20187;-72
2023/10/21 08:15:17;;;;;;;0.90;0.50;;;16.20;99.90;;;;;;5070097;28;20195;-72
2023/10/21 08:17:43;;;;;;;0.80;0.40;;;16.30;99.90;;;;;;5069891;28;20206;-72
2023/10/21 08:20:09;;;;;;;2.00;0.60;;;16.40;99.90;;;;;;5068444;28;20438;-72
2023/10/21 08:22:35;;;;;;;3.70;0.60;;;16.70;99.90;;;;;;5069635;28;20465;-72
2023/10/21 08:25:01;;;;;;;0.77;0.40;;;17.00;99.90;;;;;;5068408;28;20414;-72
2023/10/21 08:27:27;;;;;;;1.40;0.40;;;17.20;99.90;;;;;;5068839;28;20232;-72
2023/10/21 08:29:55;;;;;;;1.43;0.60;;;17.10;99.90;;;;;;5069523;28;20186;-72
2023/10/21 08:32:21;;;;;;;0.90;0.50;;;16.90;99.90;;;;;;5069545;28;20423;-72
2023/10/21 08:34:46;;;;;;;2.30;0.47;;;16.70;99.90;;;;;;5068185;28;20421;-72
2023/10/21 08:37:12;;;;;;;0.80;0.40;;;16.70;99.90;;;;;;5069314;28;20284;-72
2023/10/21 08:39:38;;;;;;;0.80;0.40;;;16.80;99.90;;;;;;5068117;28;20252;-72
2023/10/21 08:42:05;;;;;;;1.80;0.70;;;17.00;99.90;;;;;;5067629;28;20327;-71
2023/10/21 08:44:32;;;;;;;2.30;0.50;;;17.30;99.90;;;;;;5069216;28;20186;-72
2023/10/21 08:47:02;;;;;;;2.23;0.50;;;18.10;99.90;;;;;;5069219;28;20434;-72
2023/10/21 08:49:30;;;;;;;0.80;0.50;;;18.90;99.90;;;;;;5069162;28;20448;-72
2023/10/21 08:51:58;;;;;;;0.80;0.47;;;19.90;97.50;;;;;;5068958;28;20415;-72
2023/10/21 08:54:24;;;;;;;0.80;0.40;;;19.60;95.60;;;;;;5068994;28;20454;-72
2023/10/21 08:56:50;;;;;;;1.50;0.60;;;19.70;96.00;;;;;;5068876;28;20437;-72
2023/10/21 08:59:16;;;;;;;1.13;0.50;;;19.90;95.30;;;;;;5069214;28;20910;-72
2023/10/21 09:01:41;;;;;;;1.00;0.50;;;20.40;93.90;;;;;;5068703;28;20198;-72
2023/10/21 09:04:07;;;;;;;1.57;0.40;;;20.50;93.20;;;;;;5067233;28;20264;-72
2023/10/21 09:06:33;;;;;;;1.27;0.50;;;20.40;92.80;;;;;;5068639;28;20210;-72
2023/10/21 09:08:58;;;;;;;0.80;0.50;;;20.20;91.50;;;;;;5067269;28;20189;-72
2023/10/21 09:11:27;;;;;;;3.37;0.60;;;19.50;92.50;;;;;;5068651;28;20181;-72
2023/10/21 09:13:58;;;;;;;1.83;0.40;;;19.00;93.40;;;;;;5068530;28;20206;-72
2023/10/21 09:16:29;;;;;;;2.80;0.67;;;18.70;94.80;;;;;;5065864;28;20451;-72
2023/10/21 09:18:59;;;;;;;0.83;0.40;;;18.70;95.10;;;;;;5066002;28;20417;-72
2023/10/21 09:21:32;;;;;;;2.10;0.80;;;18.60;94.40;;;;;;5065543;28;20483;-72
2023/10/21 09:23:59;;;;;;;2.73;0.63;;;18.70;95.50;;;;;;5067382;28;20462;-72
2023/10/21 09:26:39;;;;;;;2.37;0.67;;;18.80;96.80;;;;;;5067320;28;20534;-72
2023/10/21 09:29:11;;;;;;;2.20;0.70;;;18.70;95.00;;;;;;5067243;28;20417;-72
2023/10/21 09:31:54;;;;;;;1.87;0.93;;;18.50;94.80;;;;;;5065302;28;20420;-72
2023/10/21 09:34:31;;;;;;;3.03;0.80;;;18.30;96.80;;;;;;5066999;28;20417;-73
2023/10/21 09:37:04;;;;;;;0.93;0.50;;;18.10;93.70;;;;;;5065337;28;20486;-71
2023/10/21 09:39:38;;;;;;;3.47;0.97;;;18.20;96.10;;;;;;5066359;28;20425;-71
2023/10/21 09:42:05;;;;;;;1.57;0.70;;;18.40;96.80;;;;;;5066902;28;20427;-72
2023/10/21 09:44:31;;;;;;;1.87;0.60;;;18.40;95.70;;;;;;5065653;28;20457;-71
2023/10/21 09:47:00;;;;;;;3.90;0.60;;;18.20;95.10;;;;;;5066926;28;20437;-72
2023/10/21 09:49:27;;;;;;;1.87;0.70;;;18.10;95.00;;;;;;5066930;28;20516;-73
2023/10/21 09:52:07;;;;;;;1.37;0.70;;;17.90;95.00;;;;;;5065427;28;20436;-71
2023/10/21 09:55:04;;;;;;;1.20;0.50;;;17.80;95.70;;;;;;5067150;28;20420;-72
2023/10/21 09:57:31;;;;;;;1.10;0.50;;;17.90;95.60;;;;;;5066846;28;20967;-71
2023/10/21 09:59:59;;;;;;;1.67;0.60;;;17.80;96.20;;;;;;5066664;28;20421;-71
2023/10/21 10:02:26;;;;;;;1.93;0.70;;;17.60;94.10;;;;;;5065189;28;20479;-73
2023/10/21 10:04:53;;;;;;;1.43;0.40;;;17.70;96.00;;;;;;5066898;28;20878;-71
2023/10/21 10:07:20;;;;;;;3.83;0.57;;;17.90;96.10;;;;;;5066700;28;20817;-71
2023/10/21 10:09:48;;;;;;;3.53;0.60;;;17.90;96.00;;;;;;5066649;28;20423;-70
2023/10/21 10:12:25;;;;;;;0.93;0.43;;;18.20;95.50;;;;;;5065362;28;20959;-72
2023/10/21 10:14:53;;;;;;;4.60;0.70;;;17.80;93.10;;;;;;5066794;28;20413;-72
2023/10/21 10:17:48;;;;;;;2.10;0.60;;;17.70;94.40;;;;;;5066794;28;20541;-71
2023/10/21 10:20:25;;;;;;;1.93;0.90;;;17.90;96.20;;;;;;5062765;28;20494;-72
2023/10/21 10:23:07;;;;;;;2.13;0.60;;;18.40;94.20;;;;;;5066851;28;20470;-72
2023/10/21 10:25:36;;;;;;;1.40;0.60;;;18.70;92.80;;;;;;5065013;28;20433;-72
2023/10/21 10:28:19;;;;;;;1.30;0.60;;;18.30;92.10;;;;;;5066277;28;20433;-72
2023/10/21 10:30:46;;;;;;;1.27;0.60;;;18.50;93.70;;;;;;5066432;28;20927;-72
2023/10/21 10:33:22;;;;;;;1.20;0.50;;;19.20;92.60;;;;;;5066324;28;20453;-71
2023/10/21 10:35:53;;;;;;;2.73;0.60;;;19.80;93.20;;;;;;5066331;28;20838;-71
2023/10/21 10:38:27;;;;;;;2.33;0.50;;;20.60;91.00;;;;;;5066354;28;20919;-71
2023/10/21 10:41:05;;;;;;;1.00;0.50;;;21.30;85.10;;;;;;5064996;28;20425;-72
2023/10/21 10:43:32;;;;;;;1.30;0.50;;;22.50;82.90;;;;;;5066702;28;20444;-71
2023/10/21 10:46:00;;;;;;;1.50;0.80;;;22.40;81.10;;;;;;5065247;28;20443;-71
2023/10/21 10:48:29;;;;;;;1.63;0.60;;;21.60;81.20;;;;;;5066594;28;20417;-71
2023/10/21 10:51:14;;;;;;;1.10;0.50;;;21.70;79.70;;;;;;5067418;28;20409;-71
2023/10/21 10:53:40;;;;;;;0.90;0.43;;;21.90;81.70;;;;;;5070701;28;20581;-72
2023/10/21 10:56:14;;;;;;;1.80;0.50;;;21.00;77.60;;;;;;5070755;28;20436;-71
2023/10/21 10:58:42;;;;;;;4.87;0.63;;;20.90;82.10;;;;;;5069303;28;20413;-71
2023/10/21 11:01:19;;;;;;;1.40;0.43;;;21.20;79.70;;;;;;5070707;28;20437;-71
2023/10/21 11:04:02;;;;;;;3.00;0.60;;;21.70;78.90;;;;;;5070653;28;20463;-71
2023/10/21 11:06:32;;;;;;;3.63;0.70;;;22.10;77.70;;;;;;5069357;28;20539;-71
2023/10/21 11:08:59;;;;;;;0.90;0.60;;;22.40;74.10;;;;;;5070623;28;20423;-70
2023/10/21 11:11:27;;;;;;;1.90;0.70;;;21.60;77.70;;;;;;5070548;28;20879;-71
2023/10/21 11:13:53;;;;;;;1.73;0.80;;;21.40;74.40;;;;;;5069212;28;20512;-71
2023/10/21 11:16:19;;;;;;;1.90;0.50;;;21.30;76.80;;;;;;5068978;28;20463;-71
2023/10/21 11:18:45;;;;;;;1.20;0.40;;;21.30;75.40;;;;;;5070132;28;20812;-71
2023/10/21 11:21:10;;;;;;;1.93;0.60;;;21.10;73.40;;;;;;5068898;28;20447;-71
2023/10/21 11:23:36;;;;;;;1.23;0.60;;;20.40;75.20;;;;;;5070041;28;20255;-71
2023/10/21 11:26:07;;;;;;;0.80;0.50;;;20.40;79.30;;;;;;5068722;28;20175;-72
2023/10/21 11:28:35;;;;;;;1.60;0.70;;;20.50;82.00;;;;;;5052766;28;20441;-72
2023/10/21 11:31:02;;;;;;;1.83;0.60;;;20.40;79.20;;;;;;5070123;28;20417;-71
2023/10/21 11:33:27;;;;;;;1.63;0.60;;;20.10;79.90;;;;;;5051879;28;20437;-72
2023/10/21 11:35:53;;;;;;;3.00;0.60;;;19.50;78.70;;;;;;5069938;28;20425;-71
2023/10/21 11:38:21;;;;;;;4.40;0.77;;;19.70;82.30;;;;;;5068363;28;20189;-72
2023/10/21 11:40:46;;;;;;;1.20;0.53;;;19.50;81.30;;;;;;5070053;28;20413;-71
2023/10/21 11:43:17;;;;;;;1.00;0.50;;;19.40;83.10;;;;;;5070335;28;20473;-71
2023/10/21 11:45:43;;;;;;;4.03;0.80;;;19.30;82.20;;;;;;5070304;28;20967;-71
2023/10/21 11:48:09;;;;;;;1.30;0.70;;;19.10;85.20;;;;;;5068525;28;20448;-71
2023/10/21 11:50:45;;;;;;;1.30;0.50;;;19.10;85.20;;;;;;5070118;28;20466;-71
2023/10/21 11:53:12;;;;;;;0.80;0.50;;;18.90;87.90;;;;;;5069993;28;20477;-71
2023/10/21 12:00:18;;;;;;;0.87;0.40;;;18.70;85.60;;;;;;5069910;28;20413;-71
2023/10/21 12:02:48;;;;;;;1.30;0.40;;;18.60;87.30;;;;;;5069308;28;20536;-70
2023/10/21 12:20:45;;;;;;;1.03;0.57;;;17.70;85.60;;;;;;5039911;28;20426;-72
2023/10/21 12:29:26;;;;;;;1.20;0.50;;;17.00;88.60;;;;;;5069413;28;20436;-72
2023/10/21 12:34:33;;;;;;;2.50;0.70;;;17.00;90.60;;;;;;5046058;28;20430;-72
2023/10/21 12:40:29;;;;;;;7.17;0.60;;;16.80;90.70;;;;;;5069798;28;20587;-72
2023/10/21 12:42:43;;;;;;;4.83;0.80;;;16.80;91.30;;;;;;5067233;28;20571;-72
2023/10/21 12:45:18;;;;;;;3.73;0.90;;;16.80;92.90;;;;;;5069794;28;20405;-71
2023/10/21 12:47:44;;;;;;;1.13;0.60;;;16.80;93.00;;;;;;5069714;28;20443;-72
2023/10/21 12:50:12;;;;;;;1.87;0.60;;;16.70;92.70;;;;;;5068254;28;20434;-72
2023/10/21 12:52:39;;;;;;;4.97;1.03;;;16.70;92.20;;;;;;5069728;28;20431;-72
2023/10/21 12:55:10;;;;;;;1.30;0.87;;;16.70;93.50;;;;;;5068207;28;20434;-71
2023/10/21 12:57:36;;;;;;;4.40;0.80;;;16.60;93.00;;;;;;5068253;28;21028;-71
2023/10/21 13:00:05;;;;;;;1.77;0.67;;;16.60;94.80;;;;;;5069224;28;20431;-72
2023/10/21 13:02:35;;;;;;;2.63;0.63;;;16.60;93.80;;;;;;5068667;28;20862;-72
2023/10/21 13:05:03;;;;;;;10.00;1.03;;;16.60;92.90;;;;;;5068903;28;20423;-72
2023/10/21 13:07:28;;;;;;;1.00;0.60;;;16.30;93.50;;;;;;5067370;28;20452;-72
2023/10/21 13:09:55;;;;;;;2.30;0.60;;;16.30;96.00;;;;;;5067079;28;20561;-72
2023/10/21 13:12:21;;;;;;;1.63;0.60;;;16.30;95.40;;;;;;5068572;28;20207;-71
2023/10/21 13:14:47;;;;;;;0.80;0.40;;;16.40;94.90;;;;;;5067849;28;20608;-71
2023/10/21 13:17:12;;;;;;;3.50;0.70;;;16.40;96.20;;;;;;5068507;28;20199;-71
2023/10/21 13:19:38;;;;;;;0.90;0.60;;;16.40;96.00;;;;;;5068274;28;20436;-72